createdAt,value
2018-01-13T00:00:49.389Z,26.17
2018-01-13T00:05:52.053Z,23.80
2018-01-13T00:10:54.712Z,24.87
2018-01-13T00:15:57.942Z,23.63
2018-01-13T00:20:59.489Z,23.60
2018-01-13T00:26:01.796Z,24.17
2018-01-13T00:31:03.374Z,22.43
2018-01-13T00:36:05.642Z,24.60
2018-01-13T00:41:07.272Z,23.93
2018-01-13T00:46:08.819Z,25.00
2018-01-13T00:51:10.384Z,24.47
2018-01-13T00:56:11.984Z,25.20
2018-01-13T01:01:13.536Z,21.90
2018-01-13T01:06:15.334Z,25.40
2018-01-13T01:11:16.859Z,25.07
2018-01-13T01:16:18.420Z,24.53
2018-01-13T01:21:20.078Z,23.37
2018-01-13T01:26:21.660Z,23.60
2018-01-13T01:31:23.189Z,22.53
2018-01-13T01:36:24.885Z,24.37
2018-01-13T01:41:26.499Z,23.83
2018-01-13T01:46:27.996Z,22.53
2018-01-13T01:51:30.265Z,25.17
2018-01-13T01:56:31.873Z,23.50
2018-01-13T02:01:33.446Z,24.10
2018-01-13T02:06:35.258Z,23.03
2018-01-13T02:11:36.799Z,23.27
2018-01-13T02:16:38.381Z,23.63
2018-01-13T02:21:39.909Z,25.20
2018-01-13T02:26:41.438Z,24.40
2018-01-13T02:31:42.984Z,20.73
2018-01-13T02:36:44.503Z,23.20
2018-01-13T02:41:46.748Z,24.40
2018-01-13T02:46:48.318Z,23.30
2018-01-13T02:51:49.858Z,21.90
2018-01-13T02:56:51.384Z,22.03
2018-01-13T03:01:53.636Z,24.03
2018-01-13T03:06:55.206Z,24.00
2018-01-13T03:11:56.747Z,24.83
2018-01-13T03:16:58.255Z,23.40
2018-01-13T03:21:59.800Z,21.73
2018-01-13T03:27:01.350Z,24.20
2018-01-13T03:32:02.916Z,23.40
2018-01-13T03:37:04.447Z,24.53
2018-01-13T03:42:06.709Z,22.07
2018-01-13T03:47:08.302Z,25.53
2018-01-13T03:52:10.612Z,23.87
2018-01-13T03:57:12.178Z,21.93
2018-01-13T04:02:13.726Z,21.57
2018-01-13T04:07:16.014Z,20.70
2018-01-13T04:12:18.325Z,24.10
2018-01-13T04:17:19.849Z,23.57
2018-01-13T04:22:22.189Z,21.03
2018-01-13T04:27:23.692Z,21.83
2018-01-13T04:32:25.207Z,20.33
2018-01-13T04:37:26.696Z,21.50
2018-01-13T04:42:28.292Z,19.40
2018-01-13T04:47:29.886Z,22.07
2018-01-13T04:52:31.435Z,17.80
2018-01-13T04:57:32.943Z,20.07
2018-01-13T05:02:35.152Z,19.00
2018-01-13T05:07:36.767Z,21.33
2018-01-13T05:12:38.326Z,17.50
2018-01-13T05:17:39.848Z,19.53
2018-01-13T05:22:41.427Z,22.67
2018-01-13T05:27:43.032Z,21.17
2018-01-13T05:32:44.572Z,19.93
2018-01-13T05:37:46.195Z,18.93
2018-01-13T05:42:48.459Z,20.13
2018-01-13T05:47:50.037Z,20.17
2018-01-13T05:52:51.612Z,21.70
2018-01-13T05:57:53.851Z,19.87
2018-01-13T06:02:55.364Z,18.90
2018-01-13T06:07:57.664Z,19.43
2018-01-13T06:12:59.232Z,18.60
2018-01-13T06:18:00.852Z,19.83
2018-01-13T06:23:02.412Z,19.57
2018-01-13T06:28:03.938Z,21.20
2018-01-13T06:33:05.481Z,21.53
2018-01-13T06:38:07.764Z,21.60
2018-01-13T06:43:10.021Z,20.13
2018-01-13T06:48:11.605Z,20.90
2018-01-13T06:53:13.160Z,21.63
2018-01-13T06:58:14.711Z,21.70
2018-01-13T07:03:16.221Z,21.23
2018-01-13T07:08:18.576Z,20.83
2018-01-13T07:13:20.105Z,20.43
2018-01-13T07:18:21.708Z,21.03
2018-01-13T07:23:23.275Z,19.10
2018-01-13T07:28:24.811Z,20.30
2018-01-13T07:33:26.340Z,20.27
2018-01-13T07:38:27.860Z,22.17
2018-01-13T07:43:29.430Z,21.50
2018-01-13T07:48:30.939Z,20.90
2018-01-13T07:53:32.501Z,20.13
2018-01-13T07:58:34.055Z,20.80
2018-01-13T08:03:35.592Z,20.93
2018-01-13T08:08:37.140Z,18.73
2018-01-13T08:13:39.416Z,19.10
2018-01-13T08:18:41.666Z,23.30
2018-01-13T08:23:43.337Z,22.13
2018-01-13T08:28:44.969Z,24.40
2018-01-13T08:33:46.509Z,22.93
2018-01-13T08:38:48.815Z,20.87
2018-01-13T08:43:50.352Z,19.23
2018-01-13T08:48:52.709Z,18.50
2018-01-13T08:53:54.203Z,20.20
2018-01-13T08:58:55.874Z,21.10
2018-01-13T09:03:57.425Z,24.67
2018-01-13T09:08:58.973Z,21.53
2018-01-13T09:14:00.564Z,27.73
2018-01-13T09:19:02.197Z,22.10
2018-01-13T09:24:03.759Z,23.80
2018-01-13T09:29:05.312Z,23.70
2018-01-13T09:34:06.871Z,26.47
2018-01-13T09:39:08.488Z,25.60
2018-01-13T09:44:09.993Z,24.07
2018-01-13T09:49:12.283Z,24.03
2018-01-13T09:54:14.616Z,22.53
2018-01-13T09:59:16.157Z,24.10
2018-01-13T10:04:17.824Z,24.50
2018-01-13T10:09:19.350Z,22.53
2018-01-13T10:14:20.874Z,22.43
2018-01-13T10:19:22.483Z,21.60
2018-01-13T10:24:24.038Z,22.40
2018-01-13T10:29:25.609Z,21.63
2018-01-13T10:34:27.170Z,22.50
2018-01-13T10:39:28.731Z,20.60
2018-01-13T10:44:30.293Z,21.40
2018-01-13T10:49:31.930Z,21.33
2018-01-13T10:54:34.206Z,18.33
2018-01-13T10:59:35.785Z,21.20
2018-01-13T11:04:38.030Z,21.37
2018-01-13T11:09:40.384Z,21.40
2018-01-13T11:14:41.884Z,19.63
2018-01-13T11:19:43.443Z,19.10
2018-01-13T11:24:45.006Z,20.10
2018-01-13T11:29:46.538Z,20.07
2018-01-13T11:34:48.088Z,19.90
2018-01-13T11:39:49.691Z,17.87
2018-01-13T11:44:51.324Z,20.77
2018-01-13T11:49:52.869Z,17.23
2018-01-13T11:54:54.439Z,18.60
2018-01-13T11:59:56.020Z,18.90
2018-01-13T12:04:57.519Z,19.60
2018-01-13T12:09:59.109Z,19.50
2018-01-13T12:15:00.608Z,20.00
2018-01-13T12:20:02.209Z,17.07
2018-01-13T12:25:04.502Z,19.73
2018-01-13T12:30:06.803Z,19.03
2018-01-13T12:35:08.328Z,18.27
2018-01-13T12:40:09.862Z,17.00
2018-01-13T12:45:11.399Z,16.27
2018-01-13T12:50:12.952Z,14.73
2018-01-13T12:55:14.529Z,15.47
2018-01-13T13:00:16.040Z,14.20
2018-01-13T13:05:17.629Z,16.50
2018-01-13T13:10:19.257Z,15.60
2018-01-13T13:15:20.785Z,20.30
2018-01-13T13:20:22.379Z,20.40
2018-01-13T13:25:23.916Z,19.67
2018-01-13T13:30:25.514Z,18.80
2018-01-13T13:35:27.132Z,20.90
2018-01-13T13:40:28.681Z,20.97
2018-01-13T13:45:30.233Z,19.57
2018-01-13T13:50:31.797Z,20.30
2018-01-13T13:55:33.594Z,19.80
2018-01-13T14:00:35.146Z,19.23
2018-01-13T14:05:36.699Z,19.57
2018-01-13T14:10:38.294Z,22.10
2018-01-13T14:15:39.856Z,22.90
2018-01-13T14:20:41.464Z,22.37
2018-01-13T14:25:43.075Z,22.90
2018-01-13T14:30:44.595Z,19.10
2018-01-13T14:35:46.191Z,22.93
2018-01-13T14:40:48.485Z,22.10
2018-01-13T14:45:50.795Z,20.30
2018-01-13T14:50:52.346Z,21.70
2018-01-13T14:55:55.377Z,18.10
2018-01-13T15:00:56.961Z,18.37
2018-01-13T15:05:58.576Z,17.07
2018-01-13T15:11:00.913Z,14.90
2018-01-13T15:16:02.529Z,13.27
2018-01-13T15:21:04.901Z,12.80
2018-01-13T15:26:06.432Z,13.33
2018-01-13T15:31:08.063Z,14.30
2018-01-13T15:36:09.565Z,18.20
2018-01-13T15:41:11.153Z,12.57
2018-01-13T15:46:12.828Z,13.03
2018-01-13T15:51:14.364Z,13.00
2018-01-13T15:56:15.867Z,14.73
2018-01-13T16:01:17.455Z,13.60
2018-01-13T16:06:19.030Z,14.10
2018-01-13T16:11:20.652Z,16.73
2018-01-13T16:16:22.392Z,12.73
2018-01-13T16:21:24.031Z,13.30
2018-01-13T16:26:25.579Z,14.10
2018-01-13T16:31:27.289Z,13.27
2018-01-13T16:36:29.660Z,13.60
2018-01-13T16:41:31.287Z,24.40
2018-01-13T16:46:32.900Z,15.07
2018-01-13T16:51:34.448Z,14.47
2018-01-13T17:02:35.401Z,17.00
2018-01-13T17:12:37.737Z,16.00
2018-01-13T17:22:39.366Z,15.27
2018-01-13T17:32:40.990Z,15.83
2018-01-13T17:42:42.649Z,15.37
2018-01-13T17:52:44.297Z,16.70
2018-01-13T18:02:45.939Z,17.03
2018-01-13T18:12:48.275Z,17.80
2018-01-13T18:22:49.835Z,16.03
2018-01-13T18:32:51.313Z,17.63
2018-01-13T18:42:52.850Z,16.87
2018-01-13T18:52:55.131Z,18.80
2018-01-13T19:02:56.719Z,18.13
2018-01-13T19:12:58.330Z,17.97
2018-01-13T19:23:00.103Z,17.40
2018-01-13T19:33:01.709Z,18.57
2018-01-13T19:43:03.315Z,18.27
2018-01-13T19:53:04.892Z,18.30
2018-01-13T20:03:06.445Z,18.00
2018-01-13T20:13:08.021Z,18.13
2018-01-13T20:23:09.580Z,16.77
2018-01-13T20:33:12.049Z,16.97
2018-01-13T20:43:14.484Z,16.03
2018-01-13T20:53:16.067Z,13.73
2018-01-13T21:03:17.684Z,15.27
2018-01-13T21:13:19.340Z,14.63
2018-01-13T21:23:21.009Z,14.43
2018-01-13T21:33:22.703Z,14.83
2018-01-13T21:43:24.309Z,15.47
2018-01-13T21:53:25.897Z,14.13
2018-01-13T22:03:27.459Z,14.60
2018-01-13T22:13:29.050Z,14.17
2018-01-13T22:23:30.658Z,15.13
2018-01-13T22:33:32.279Z,14.47
2018-01-13T22:43:33.961Z,17.27
2018-01-13T22:53:35.448Z,15.80
2018-01-13T23:03:37.040Z,15.30
2018-01-13T23:13:39.338Z,14.13
2018-01-13T23:23:40.877Z,15.63
2018-01-13T23:33:42.476Z,15.00
2018-01-13T23:43:44.032Z,14.37
2018-01-13T23:53:45.671Z,15.33
